createdAt,value
2023-03-15T00:01:54.470Z,2.67
2023-03-15T00:04:21.413Z,2.38
2023-03-15T00:06:48.292Z,2.75
2023-03-15T00:09:15.207Z,3.05
2023-03-15T00:11:42.414Z,2.80
2023-03-15T00:14:10.297Z,2.80
2023-03-15T00:16:37.285Z,3.08
2023-03-15T00:19:04.333Z,3.13
2023-03-15T00:21:31.185Z,3.60
2023-03-15T00:23:58.175Z,2.97
2023-03-15T00:26:27.721Z,2.88
2023-03-15T00:28:54.772Z,3.50
2023-03-15T00:31:25.620Z,4.45
2023-03-15T00:33:55.809Z,3.38
2023-03-15T00:36:24.337Z,3.65
2023-03-15T00:38:53.852Z,3.47
2023-03-15T00:41:22.491Z,4.20
2023-03-15T00:43:49.824Z,3.60
2023-03-15T00:46:18.843Z,3.38
2023-03-15T00:48:49.568Z,3.70
2023-03-15T00:51:23.758Z,2.85
2023-03-15T00:53:53.190Z,3.22
2023-03-15T00:56:24.971Z,3.20
2023-03-15T00:58:53.114Z,2.85
2023-03-15T01:01:25.515Z,3.00
2023-03-15T01:03:53.268Z,3.40
2023-03-15T01:06:27.168Z,3.10
2023-03-15T01:08:57.540Z,2.47
2023-03-15T01:11:27.571Z,3.45
2023-03-15T01:13:57.928Z,2.92
2023-03-15T01:16:26.807Z,3.50
2023-03-15T01:18:54.394Z,3.22
2023-03-15T01:21:23.779Z,3.60
2023-03-15T01:23:51.452Z,2.78
2023-03-15T01:26:20.265Z,2.55
2023-03-15T01:28:47.437Z,3.45
2023-03-15T01:31:28.056Z,3.55
2023-03-15T01:33:55.523Z,2.60
2023-03-15T01:36:23.456Z,3.10
2023-03-15T01:38:51.101Z,4.18
2023-03-15T01:41:19.541Z,4.20
2023-03-15T01:43:49.692Z,2.97
2023-03-15T01:46:34.855Z,3.35
2023-03-15T01:49:24.058Z,4.00
2023-03-15T01:51:59.171Z,3.20
2023-03-15T01:54:47.105Z,3.28
2023-03-15T01:57:23.045Z,3.55
2023-03-15T01:59:58.342Z,3.72
2023-03-15T02:02:26.482Z,3.65
2023-03-15T02:05:06.951Z,3.63
2023-03-15T02:07:34.694Z,4.25
2023-03-15T02:10:05.666Z,3.88
2023-03-15T02:12:38.787Z,3.53
2023-03-15T02:15:07.816Z,3.50
2023-03-15T02:17:43.352Z,3.15
2023-03-15T02:20:48.405Z,4.22
2023-03-15T02:23:21.183Z,3.70
2023-03-15T02:26:28.435Z,3.17
2023-03-15T02:28:56.100Z,3.42
2023-03-15T02:31:23.078Z,3.58
2023-03-15T02:33:52.862Z,3.20
2023-03-15T02:36:29.440Z,3.53
2023-03-15T02:38:57.620Z,3.67
2023-03-15T02:41:42.432Z,3.95
2023-03-15T02:44:20.731Z,3.22
2023-03-15T02:46:52.316Z,3.00
2023-03-15T02:49:25.477Z,3.40
2023-03-15T02:51:52.339Z,3.35
2023-03-15T02:54:19.167Z,3.65
2023-03-15T02:56:45.987Z,3.63
2023-03-15T02:59:12.895Z,3.40
2023-03-15T03:01:40.165Z,3.22
2023-03-15T03:04:07.837Z,4.00
2023-03-15T03:06:34.642Z,3.83
2023-03-15T03:09:03.066Z,3.55
2023-03-15T03:11:30.815Z,3.58
2023-03-15T03:13:57.645Z,4.00
2023-03-15T03:16:24.667Z,3.55
2023-03-15T03:18:51.563Z,3.65
2023-03-15T03:21:18.638Z,3.55
2023-03-15T03:23:46.243Z,3.15
2023-03-15T03:26:18.739Z,3.45
2023-03-15T03:28:47.478Z,3.25
2023-03-15T03:31:26.037Z,3.47
2023-03-15T03:33:55.161Z,3.78
2023-03-15T03:36:22.011Z,3.30
2023-03-15T03:38:48.899Z,3.80
2023-03-15T03:41:15.992Z,3.30
2023-03-15T03:43:43.283Z,3.15
2023-03-15T03:46:10.428Z,3.47
2023-03-15T03:48:37.278Z,3.70
2023-03-15T03:51:04.500Z,3.58
2023-03-15T03:53:31.385Z,3.47
2023-03-15T03:55:58.411Z,3.00
2023-03-15T03:58:25.317Z,3.22
2023-03-15T04:00:54.323Z,3.10
2023-03-15T04:03:27.086Z,3.63
2023-03-15T04:05:55.771Z,3.13
2023-03-15T04:08:24.555Z,3.30
2023-03-15T04:10:56.708Z,3.63
2023-03-15T04:13:25.541Z,3.10
2023-03-15T04:15:57.507Z,2.80
2023-03-15T04:18:24.911Z,3.65
2023-03-15T04:20:54.771Z,3.45
2023-03-15T04:23:23.558Z,3.45
2023-03-15T04:25:57.988Z,3.53
2023-03-15T04:28:24.988Z,3.70
2023-03-15T04:30:52.158Z,3.53
2023-03-15T04:33:19.010Z,2.95
2023-03-15T04:35:45.985Z,2.80
2023-03-15T04:38:12.896Z,2.60
2023-03-15T04:40:39.875Z,2.92
2023-03-15T04:43:06.833Z,3.08
2023-03-15T04:45:33.750Z,4.28
2023-03-15T04:48:01.938Z,3.20
2023-03-15T04:50:30.807Z,3.35
2023-03-15T04:53:01.562Z,3.60
2023-03-15T04:55:28.715Z,3.05
2023-03-15T04:57:56.658Z,2.95
2023-03-15T05:00:23.535Z,2.70
2023-03-15T05:02:54.898Z,3.08
2023-03-15T05:05:24.037Z,3.00
2023-03-15T05:07:51.743Z,2.70
2023-03-15T05:10:19.450Z,2.88
2023-03-15T05:12:46.773Z,2.80
2023-03-15T05:15:13.713Z,3.30
2023-03-15T05:17:40.622Z,3.55
2023-03-15T05:20:11.637Z,3.20
2023-03-15T05:22:40.727Z,3.55
2023-03-15T05:25:10.021Z,4.15
2023-03-15T05:27:38.375Z,4.10
2023-03-15T05:30:07.378Z,3.45
2023-03-15T05:32:35.173Z,3.00
2023-03-15T05:35:02.449Z,3.25
2023-03-15T05:37:30.190Z,3.97
2023-03-15T05:39:57.041Z,2.97
2023-03-15T05:42:26.191Z,3.00
2023-03-15T05:44:57.101Z,3.15
2023-03-15T05:47:24.102Z,3.58
2023-03-15T05:49:52.364Z,3.65
2023-03-15T05:52:19.578Z,3.67
2023-03-15T05:54:46.428Z,4.10
2023-03-15T05:57:13.276Z,3.55
2023-03-15T05:59:40.177Z,4.07
2023-03-15T06:02:08.772Z,3.70
2023-03-15T06:04:37.880Z,4.00
2023-03-15T06:07:05.039Z,3.55
2023-03-15T06:09:32.113Z,2.85
2023-03-15T06:11:59.356Z,2.90
2023-03-15T06:14:27.842Z,3.00
2023-03-15T06:16:54.984Z,2.72
2023-03-15T06:19:22.812Z,2.28
2023-03-15T06:21:49.900Z,3.05
2023-03-15T06:24:16.750Z,3.05
2023-03-15T06:26:43.644Z,2.80
2023-03-15T06:29:10.566Z,3.08
2023-03-15T06:31:37.360Z,3.28
2023-03-15T06:34:04.189Z,2.85
2023-03-15T06:36:31.756Z,2.83
2023-03-15T06:38:58.701Z,2.35
2023-03-15T06:41:26.875Z,3.08
2023-03-15T06:43:53.782Z,2.67
2023-03-15T06:46:20.710Z,2.83
2023-03-15T06:48:47.581Z,3.10
2023-03-15T06:51:14.428Z,2.95
2023-03-15T06:53:41.292Z,3.13
2023-03-15T06:56:08.165Z,2.70
2023-03-15T06:58:34.971Z,2.72
2023-03-15T07:01:01.800Z,2.97
2023-03-15T07:03:28.693Z,3.10
2023-03-15T07:05:55.712Z,3.15
2023-03-15T07:08:25.539Z,2.58
2023-03-15T07:10:55.423Z,3.45
2023-03-15T07:13:22.246Z,3.55
2023-03-15T07:15:54.284Z,3.33
2023-03-15T07:18:21.289Z,3.07
2023-03-15T07:20:55.129Z,2.83
2023-03-15T07:23:22.002Z,3.10
2023-03-15T07:25:55.058Z,4.05
2023-03-15T07:28:25.048Z,3.00
2023-03-15T07:31:01.927Z,3.08
2023-03-15T07:33:31.814Z,4.00
2023-03-15T07:35:59.399Z,3.40
2023-03-15T07:38:31.361Z,3.38
2023-03-15T07:41:01.811Z,3.28
2023-03-15T07:43:29.433Z,3.03
2023-03-15T07:45:56.296Z,2.97
2023-03-15T07:48:23.235Z,3.28
2023-03-15T07:50:50.537Z,3.15
2023-03-15T07:53:17.732Z,3.25
2023-03-15T07:55:48.130Z,4.35
2023-03-15T07:58:15.552Z,4.20
2023-03-15T08:00:42.984Z,4.43
2023-03-15T08:03:10.175Z,4.10
2023-03-15T08:05:37.343Z,3.40
2023-03-15T08:08:05.013Z,3.35
2023-03-15T08:10:32.061Z,3.63
2023-03-15T08:12:58.932Z,3.45
2023-03-15T08:15:25.828Z,3.33
2023-03-15T08:17:52.761Z,5.93
2023-03-15T08:20:19.853Z,3.20
2023-03-15T08:22:49.194Z,3.65
2023-03-15T08:25:23.372Z,4.50
2023-03-15T08:27:51.821Z,3.83
2023-03-15T08:30:22.180Z,4.80
2023-03-15T08:32:52.478Z,4.00
2023-03-15T08:35:22.217Z,3.53
2023-03-15T08:37:52.352Z,3.63
2023-03-15T08:40:24.048Z,2.95
2023-03-15T08:42:53.007Z,3.10
2023-03-15T08:45:21.217Z,3.17
2023-03-15T08:47:48.059Z,3.28
2023-03-15T08:50:16.821Z,3.47
2023-03-15T08:52:44.206Z,3.03
2023-03-15T08:55:14.301Z,3.13
2023-03-15T08:57:42.367Z,3.55
2023-03-15T09:00:17.493Z,3.60
2023-03-15T09:02:44.584Z,3.30
2023-03-15T09:05:11.982Z,3.70
2023-03-15T09:07:43.408Z,2.90
2023-03-15T09:10:15.069Z,3.20
2023-03-15T09:12:48.510Z,3.00
2023-03-15T09:15:15.977Z,3.00
2023-03-15T09:17:43.537Z,2.78
2023-03-15T09:20:16.879Z,2.90
2023-03-15T09:22:50.954Z,3.13
2023-03-15T09:25:18.148Z,2.45
2023-03-15T09:27:44.995Z,2.60
2023-03-15T09:30:13.482Z,2.42
2023-03-15T09:32:40.888Z,2.50
2023-03-15T09:35:13.321Z,2.85
2023-03-15T09:37:40.327Z,2.83
2023-03-15T09:40:13.541Z,3.05
2023-03-15T09:43:04.080Z,2.38
2023-03-15T09:46:15.807Z,2.65
2023-03-15T09:49:23.599Z,2.65
2023-03-15T09:52:08.553Z,2.42
2023-03-15T09:54:52.277Z,2.83
2023-03-15T09:57:41.344Z,2.65
2023-03-15T10:00:17.781Z,3.00
2023-03-15T10:02:56.919Z,2.63
2023-03-15T10:05:44.618Z,3.45
2023-03-15T10:08:18.087Z,2.42
2023-03-15T10:10:55.813Z,2.63
2023-03-15T10:13:51.042Z,2.70
2023-03-15T10:17:00.131Z,2.60
2023-03-15T10:20:01.316Z,2.35
2023-03-15T10:23:11.508Z,3.65
2023-03-15T10:25:41.075Z,3.10
2023-03-15T10:28:16.962Z,3.22
2023-03-15T10:30:50.399Z,2.97
2023-03-15T10:33:34.376Z,2.70
2023-03-15T10:36:11.829Z,2.83
2023-03-15T10:38:41.878Z,1.95
2023-03-15T10:41:38.997Z,2.22
2023-03-15T10:44:13.081Z,2.38
2023-03-15T10:46:40.081Z,1.80
2023-03-15T10:49:16.122Z,2.10
2023-03-15T10:51:48.791Z,2.25
2023-03-15T10:54:19.301Z,3.33
2023-03-15T10:56:48.057Z,4.45
2023-03-15T10:59:22.039Z,5.40
2023-03-15T11:01:53.684Z,2.70
2023-03-15T11:04:26.786Z,2.15
2023-03-15T11:07:03.859Z,2.45
2023-03-15T11:09:52.682Z,2.72
2023-03-15T11:12:28.016Z,2.67
2023-03-15T11:15:10.144Z,2.50
2023-03-15T11:17:49.907Z,2.40
2023-03-15T11:20:35.754Z,2.70
2023-03-15T11:23:20.554Z,3.25
2023-03-15T11:25:48.067Z,2.80
2023-03-15T11:28:21.864Z,2.90
2023-03-15T11:30:49.470Z,3.33
2023-03-15T11:33:48.118Z,3.47
2023-03-15T11:36:22.056Z,3.92
2023-03-15T11:38:50.136Z,3.35
2023-03-15T11:41:28.384Z,3.40
2023-03-15T11:44:35.007Z,3.45
2023-03-15T11:47:43.350Z,3.05
2023-03-15T11:50:15.277Z,3.30
2023-03-15T11:52:43.398Z,3.25
2023-03-15T11:55:28.010Z,2.90
2023-03-15T11:57:58.023Z,3.15
2023-03-15T12:00:29.563Z,3.30
2023-03-15T12:03:19.506Z,3.15
2023-03-15T12:06:12.404Z,2.40
2023-03-15T12:08:57.266Z,3.03
2023-03-15T12:11:24.520Z,2.58
2023-03-15T12:13:57.142Z,2.38
2023-03-15T12:16:30.299Z,2.05
2023-03-15T12:19:10.655Z,2.30
2023-03-15T12:21:47.126Z,1.73
2023-03-15T12:24:38.835Z,1.73
2023-03-15T12:27:13.996Z,1.65
2023-03-15T12:29:45.851Z,65.80
2023-03-15T12:32:17.409Z,2.42
2023-03-15T12:34:57.510Z,2.63
2023-03-15T12:37:44.623Z,1.90
2023-03-15T12:40:20.442Z,1.30
2023-03-15T12:42:47.236Z,1.90
2023-03-15T12:45:19.428Z,1.33
2023-03-15T12:47:49.892Z,1.55
2023-03-15T12:50:53.091Z,1.70
2023-03-15T12:53:25.851Z,2.22
2023-03-15T12:56:02.861Z,2.58
2023-03-15T12:58:41.711Z,2.57
2023-03-15T13:01:16.117Z,2.20
2023-03-15T13:03:43.754Z,2.47
2023-03-15T13:06:32.791Z,2.15
2023-03-15T13:09:52.000Z,1.92
2023-03-15T13:12:41.734Z,1.90
2023-03-15T13:15:29.870Z,1.55
2023-03-15T13:18:05.981Z,1.80
2023-03-15T13:21:15.626Z,1.98
2023-03-15T13:23:54.752Z,3.95
2023-03-15T13:26:55.418Z,4.32
2023-03-15T13:29:32.319Z,3.28
2023-03-15T13:32:23.083Z,2.25
2023-03-15T13:34:50.395Z,3.33
2023-03-15T13:37:25.847Z,2.47
2023-03-15T13:40:02.570Z,2.20
2023-03-15T13:42:30.047Z,2.00
2023-03-15T13:45:09.092Z,1.58
2023-03-15T13:47:35.924Z,2.17
2023-03-15T13:50:07.428Z,1.83
2023-03-15T13:52:34.445Z,2.00
2023-03-15T13:55:03.145Z,1.35
2023-03-15T13:57:30.323Z,1.67
2023-03-15T14:00:01.974Z,2.33
2023-03-15T14:02:37.742Z,3.35
2023-03-15T14:05:30.958Z,2.60
2023-03-15T14:08:06.060Z,4.82
2023-03-15T14:10:37.509Z,2.30
2023-03-15T14:13:29.065Z,2.05
2023-03-15T14:16:13.897Z,1.90
2023-03-15T14:18:42.264Z,2.33
2023-03-15T14:21:32.206Z,2.60
2023-03-15T14:24:06.914Z,2.72
2023-03-15T14:26:36.854Z,2.25
2023-03-15T14:29:45.099Z,2.10
2023-03-15T14:32:29.468Z,2.75
2023-03-15T14:35:30.976Z,3.15
2023-03-15T14:38:01.949Z,3.40
2023-03-15T14:40:36.443Z,3.20
2023-03-15T14:43:06.373Z,3.00
2023-03-15T14:45:36.933Z,2.60
2023-03-15T14:48:18.949Z,2.70
2023-03-15T14:50:47.828Z,2.30
2023-03-15T14:53:19.862Z,2.50
2023-03-15T14:55:47.218Z,2.33
2023-03-15T14:58:21.238Z,2.58
2023-03-15T15:00:52.438Z,2.65
2023-03-15T15:03:43.410Z,2.30
2023-03-15T15:06:14.959Z,2.25
2023-03-15T15:08:46.980Z,2.75
2023-03-15T15:11:15.509Z,2.50
2023-03-15T15:13:42.866Z,2.30
2023-03-15T15:16:10.223Z,2.53
2023-03-15T15:18:37.933Z,2.70
2023-03-15T15:21:23.836Z,2.40
2023-03-15T15:23:58.550Z,2.80
2023-03-15T15:26:29.971Z,2.95
2023-03-15T15:28:57.824Z,2.83
2023-03-15T15:31:27.309Z,2.92
2023-03-15T15:33:56.081Z,3.28
2023-03-15T15:36:32.633Z,3.55
2023-03-15T15:39:06.349Z,3.88
2023-03-15T15:41:34.408Z,3.90
2023-03-15T15:44:01.458Z,3.33
2023-03-15T15:46:28.584Z,2.80
2023-03-15T15:48:55.482Z,4.80
2023-03-15T15:51:29.593Z,2.88
2023-03-15T15:54:02.038Z,3.00
2023-03-15T15:56:51.054Z,2.80
2023-03-15T15:59:19.167Z,3.50
2023-03-15T16:02:00.251Z,3.00
2023-03-15T16:04:29.243Z,3.22
2023-03-15T16:07:01.297Z,2.90
2023-03-15T16:09:31.467Z,2.83
2023-03-15T16:11:58.753Z,3.38
2023-03-15T16:14:25.646Z,3.38
2023-03-15T16:16:52.640Z,3.42
2023-03-15T16:19:19.619Z,3.25
2023-03-15T16:21:50.817Z,3.50
2023-03-15T16:24:44.098Z,3.63
2023-03-15T16:27:16.477Z,3.58
2023-03-15T16:29:47.547Z,3.05
2023-03-15T16:32:33.416Z,3.85
2023-03-15T16:35:05.773Z,4.30
2023-03-15T16:37:33.234Z,4.22
2023-03-15T16:40:01.912Z,3.97
2023-03-15T16:42:28.940Z,4.20
2023-03-15T16:44:55.827Z,3.58
2023-03-15T16:47:22.766Z,4.32
2023-03-15T16:49:49.669Z,4.13
2023-03-15T16:52:17.309Z,5.57
2023-03-15T16:54:47.545Z,7.18
2023-03-15T16:57:22.828Z,7.55
2023-03-15T16:59:51.092Z,8.02
2023-03-15T17:02:23.290Z,7.13
2023-03-15T17:04:51.053Z,6.28
2023-03-15T17:07:21.518Z,16.63
2023-03-15T17:09:49.631Z,13.50
2023-03-15T17:12:28.380Z,10.85
2023-03-15T17:14:59.055Z,11.27
2023-03-15T17:17:32.444Z,11.98
2023-03-15T17:20:00.607Z,15.50
2023-03-15T17:22:28.293Z,13.68
2023-03-15T17:24:55.271Z,12.30
2023-03-15T17:27:39.144Z,18.98
2023-03-15T17:30:32.555Z,34.05
2023-03-15T17:35:41.419Z,15.63
2023-03-15T17:38:19.787Z,15.43
2023-03-15T17:40:46.837Z,16.60
2023-03-15T17:43:16.937Z,17.65
2023-03-15T17:45:44.228Z,18.17
2023-03-15T17:48:11.413Z,19.02
2023-03-15T17:50:38.862Z,14.88
2023-03-15T17:53:15.810Z,14.77
2023-03-15T17:55:43.393Z,14.88
2023-03-15T17:58:20.191Z,49.58
2023-03-15T18:00:54.520Z,113.72
2023-03-15T18:03:23.369Z,74.53
2023-03-15T18:05:51.056Z,76.88
2023-03-15T18:08:21.312Z,74.18
2023-03-15T18:10:50.527Z,67.28
2023-03-15T18:13:21.459Z,59.25
2023-03-15T18:15:50.068Z,45.03
2023-03-15T18:18:17.917Z,25.98
2023-03-15T18:20:45.601Z,23.35
2023-03-15T18:23:14.943Z,11.30
2023-03-15T18:25:42.939Z,11.82
2023-03-15T18:28:10.215Z,11.15
2023-03-15T18:30:37.173Z,9.07
2023-03-15T18:33:05.813Z,8.55
2023-03-15T18:35:36.036Z,7.75
2023-03-15T18:38:04.293Z,7.88
2023-03-15T18:40:33.781Z,15.32
2023-03-15T18:43:01.449Z,24.65
2023-03-15T18:45:35.049Z,32.78
2023-03-15T18:48:02.141Z,43.83
2023-03-15T18:50:30.355Z,44.20
2023-03-15T18:52:58.075Z,30.08
2023-03-15T18:55:26.277Z,90.15
2023-03-15T18:57:55.240Z,15.30
2023-03-15T19:00:32.547Z,11.68
2023-03-15T19:03:02.236Z,11.32
2023-03-15T19:05:32.592Z,13.10
2023-03-15T19:07:59.623Z,43.42
2023-03-15T19:10:27.468Z,17.75
2023-03-15T19:12:54.905Z,10.95
2023-03-15T19:15:23.441Z,12.82
2023-03-15T19:17:56.419Z,9.23
2023-03-15T19:22:52.450Z,8.68
2023-03-15T19:25:20.898Z,8.40
2023-03-15T19:27:48.791Z,8.85
2023-03-15T19:30:20.905Z,8.18
2023-03-15T19:32:50.607Z,7.38
2023-03-15T19:35:20.387Z,8.30
2023-03-15T19:37:49.375Z,8.38
2023-03-15T19:40:19.227Z,8.63
2023-03-15T19:42:48.723Z,9.32
2023-03-15T19:45:17.090Z,9.32
2023-03-15T19:47:45.083Z,8.95
2023-03-15T19:50:14.647Z,8.95
2023-03-15T19:52:51.164Z,9.68
2023-03-15T19:55:20.779Z,11.35
2023-03-15T19:57:48.211Z,10.75
2023-03-15T20:00:18.908Z,11.13
2023-03-15T20:02:46.955Z,10.48
2023-03-15T20:05:17.993Z,12.15
2023-03-15T20:07:46.290Z,13.27
2023-03-15T20:10:14.811Z,9.48
2023-03-15T20:12:42.674Z,7.55
2023-03-15T20:15:12.952Z,7.25
2023-03-15T20:17:41.145Z,7.70
2023-03-15T20:20:11.325Z,8.38
2023-03-15T20:22:41.367Z,19.90
2023-03-15T20:25:13.706Z,11.88
2023-03-15T20:27:40.986Z,9.57
2023-03-15T20:30:10.864Z,8.40
2023-03-15T20:32:37.820Z,9.88
2023-03-15T20:35:09.088Z,9.20
2023-03-15T20:37:39.820Z,8.77
2023-03-15T20:40:11.453Z,11.85
2023-03-15T20:42:39.299Z,10.40
2023-03-15T20:45:07.485Z,9.82
2023-03-15T20:47:35.291Z,9.85
2023-03-15T20:50:02.377Z,11.10
2023-03-15T20:52:29.371Z,10.30
2023-03-15T20:54:56.589Z,9.48
2023-03-15T20:57:23.632Z,10.02
2023-03-15T20:59:51.118Z,8.25
2023-03-15T21:02:17.974Z,9.07
2023-03-15T21:04:44.948Z,8.05
2023-03-15T21:07:11.968Z,7.72
2023-03-15T21:09:40.279Z,7.95
2023-03-15T21:12:08.046Z,6.90
2023-03-15T21:14:35.289Z,8.00
2023-03-15T21:17:02.111Z,7.60
2023-03-15T21:19:29.422Z,7.60
2023-03-15T21:21:58.929Z,7.22
2023-03-15T21:24:31.126Z,6.18
2023-03-15T21:26:58.472Z,6.68
2023-03-15T21:29:25.589Z,6.70
2023-03-15T21:31:52.627Z,6.57
2023-03-15T21:34:19.557Z,6.50
2023-03-15T21:36:46.412Z,7.10
2023-03-15T21:39:13.239Z,8.00
2023-03-15T21:41:40.242Z,7.35
2023-03-15T21:44:07.389Z,7.30
2023-03-15T21:46:34.303Z,7.60
2023-03-15T21:49:01.773Z,7.35
2023-03-15T21:51:29.457Z,7.85
2023-03-15T21:53:56.442Z,7.15
2023-03-15T21:56:26.173Z,7.53
2023-03-15T21:58:54.790Z,7.22
2023-03-15T22:01:25.035Z,7.45
2023-03-15T22:03:55.324Z,8.00
2023-03-15T22:06:22.769Z,7.93
2023-03-15T22:08:50.617Z,7.72
2023-03-15T22:11:17.617Z,8.07
2023-03-15T22:13:44.679Z,7.68
2023-03-15T22:16:12.513Z,8.85
2023-03-15T22:18:40.847Z,8.30
2023-03-15T22:21:07.657Z,8.30
2023-03-15T22:23:34.633Z,8.35
2023-03-15T22:26:01.540Z,8.27
2023-03-15T22:28:28.531Z,9.00
2023-03-15T22:30:55.436Z,8.18
2023-03-15T22:33:22.985Z,7.57
2023-03-15T22:35:58.274Z,7.82
2023-03-15T22:38:26.499Z,8.32
2023-03-15T22:41:10.881Z,8.70
2023-03-15T22:43:38.893Z,9.10
2023-03-15T22:46:05.839Z,9.23
2023-03-15T22:48:33.168Z,9.30
2023-03-15T22:51:13.560Z,9.80
2023-03-15T22:53:40.519Z,9.48
2023-03-15T22:56:09.228Z,10.40
2023-03-15T22:58:37.047Z,9.43
2023-03-15T23:01:04.236Z,9.70
2023-03-15T23:03:31.155Z,8.80
2023-03-15T23:05:58.056Z,8.93
2023-03-15T23:08:25.106Z,9.65
2023-03-15T23:10:52.056Z,9.90
2023-03-15T23:13:18.963Z,10.05
2023-03-15T23:15:45.878Z,10.02
2023-03-15T23:18:14.534Z,10.68
2023-03-15T23:20:42.800Z,11.02
2023-03-15T23:23:09.788Z,11.02
2023-03-15T23:25:39.065Z,11.27
2023-03-15T23:28:07.660Z,11.27
2023-03-15T23:30:36.354Z,10.90
2023-03-15T23:33:03.937Z,10.23
2023-03-15T23:35:31.772Z,10.48
2023-03-15T23:37:58.821Z,9.23
2023-03-15T23:40:26.349Z,10.50
2023-03-15T23:42:58.918Z,10.35
2023-03-15T23:45:29.483Z,10.18
2023-03-15T23:47:57.100Z,10.70
2023-03-15T23:50:26.237Z,11.02
2023-03-15T23:52:55.832Z,10.45
2023-03-15T23:55:24.200Z,9.77
2023-03-15T23:57:51.591Z,9.65
